sensor_id;sensor_type;location;lat;lon;timestamp;P1;durP1;ratioP1;P2;durP2;ratioP2
70588;SDS011;58152;49.202;18.744;2023-07-20T00:01:27;4.35;;;3.20;;
70588;SDS011;58152;49.202;18.744;2023-07-20T00:03:54;4.28;;;3.45;;
70588;SDS011;58152;49.202;18.744;2023-07-20T00:06:24;4.25;;;3.15;;
70588;SDS011;58152;49.202;18.744;2023-07-20T00:08:52;3.95;;;3.17;;
70588;SDS011;58152;49.202;18.744;2023-07-20T00:11:21;5.75;;;3.75;;
70588;SDS011;58152;49.202;18.744;2023-07-20T00:13:53;5.07;;;3.35;;
70588;SDS011;58152;49.202;18.744;2023-07-20T00:16:21;4.28;;;3.60;;
70588;SDS011;58152;49.202;18.744;2023-07-20T00:18:47;4.05;;;3.08;;
70588;SDS011;58152;49.202;18.744;2023-07-20T00:21:13;5.97;;;3.88;;
70588;SDS011;58152;49.202;18.744;2023-07-20T00:23:39;3.47;;;3.17;;
70588;SDS011;58152;49.202;18.744;2023-07-20T00:26:04;3.63;;;3.00;;
70588;SDS011;58152;49.202;18.744;2023-07-20T00:28:30;4.60;;;3.50;;
70588;SDS011;58152;49.202;18.744;2023-07-20T00:30:55;4.63;;;3.60;;
70588;SDS011;58152;49.202;18.744;2023-07-20T00:33:21;4.88;;;3.38;;
70588;SDS011;58152;49.202;18.744;2023-07-20T00:35:46;4.35;;;3.25;;
70588;SDS011;58152;49.202;18.744;2023-07-20T00:38:12;4.50;;;3.25;;
70588;SDS011;58152;49.202;18.744;2023-07-20T00:40:37;5.70;;;3.38;;
70588;SDS011;58152;49.202;18.744;2023-07-20T00:43:04;3.60;;;3.00;;
70588;SDS011;58152;49.202;18.744;2023-07-20T00:45:30;4.32;;;3.88;;
70588;SDS011;58152;49.202;18.744;2023-07-20T00:47:56;4.28;;;3.67;;
70588;SDS011;58152;49.202;18.744;2023-07-20T00:50:23;3.85;;;3.05;;
70588;SDS011;58152;49.202;18.744;2023-07-20T00:52:50;4.32;;;3.20;;
70588;SDS011;58152;49.202;18.744;2023-07-20T00:55:17;4.82;;;3.20;;
70588;SDS011;58152;49.202;18.744;2023-07-20T00:57:48;4.18;;;3.15;;
70588;SDS011;58152;49.202;18.744;2023-07-20T01:00:15;3.50;;;3.20;;
70588;SDS011;58152;49.202;18.744;2023-07-20T01:02:40;5.00;;;3.13;;
70588;SDS011;58152;49.202;18.744;2023-07-20T01:05:06;4.32;;;3.35;;
70588;SDS011;58152;49.202;18.744;2023-07-20T01:07:34;5.05;;;3.50;;
70588;SDS011;58152;49.202;18.744;2023-07-20T01:10:09;4.50;;;3.80;;
70588;SDS011;58152;49.202;18.744;2023-07-20T01:12:43;6.00;;;3.55;;
70588;SDS011;58152;49.202;18.744;2023-07-20T01:15:12;5.38;;;3.50;;
70588;SDS011;58152;49.202;18.744;2023-07-20T01:17:38;5.32;;;3.22;;
70588;SDS011;58152;49.202;18.744;2023-07-20T01:20:04;4.55;;;3.22;;
70588;SDS011;58152;49.202;18.744;2023-07-20T01:33:38;4.00;;;3.47;;
70588;SDS011;58152;49.202;18.744;2023-07-20T01:36:04;5.88;;;3.50;;
70588;SDS011;58152;49.202;18.744;2023-07-20T01:38:31;5.35;;;4.05;;
70588;SDS011;58152;49.202;18.744;2023-07-20T01:40:59;6.43;;;4.10;;
70588;SDS011;58152;49.202;18.744;2023-07-20T01:43:25;4.32;;;3.53;;
70588;SDS011;58152;49.202;18.744;2023-07-20T01:45:53;4.53;;;3.50;;
70588;SDS011;58152;49.202;18.744;2023-07-20T01:48:19;5.55;;;3.40;;
70588;SDS011;58152;49.202;18.744;2023-07-20T01:50:46;4.28;;;3.53;;
70588;SDS011;58152;49.202;18.744;2023-07-20T01:53:11;3.65;;;3.00;;
70588;SDS011;58152;49.202;18.744;2023-07-20T01:55:44;7.75;;;3.72;;
70588;SDS011;58152;49.202;18.744;2023-07-20T01:58:11;4.80;;;3.50;;
70588;SDS011;58152;49.202;18.744;2023-07-20T02:00:36;5.13;;;3.70;;
70588;SDS011;58152;49.202;18.744;2023-07-20T02:03:02;4.20;;;3.17;;
70588;SDS011;58152;49.202;18.744;2023-07-20T02:05:28;5.47;;;3.08;;
70588;SDS011;58152;49.202;18.744;2023-07-20T02:07:53;4.60;;;3.17;;
70588;SDS011;58152;49.202;18.744;2023-07-20T02:10:19;3.30;;;2.92;;
70588;SDS011;58152;49.202;18.744;2023-07-20T02:12:45;5.28;;;3.53;;
70588;SDS011;58152;49.202;18.744;2023-07-20T02:15:11;3.67;;;3.00;;
70588;SDS011;58152;49.202;18.744;2023-07-20T02:17:38;4.22;;;3.30;;
70588;SDS011;58152;49.202;18.744;2023-07-20T02:20:06;3.92;;;3.35;;
70588;SDS011;58152;49.202;18.744;2023-07-20T02:22:34;3.60;;;2.85;;
70588;SDS011;58152;49.202;18.744;2023-07-20T02:24:59;3.95;;;3.35;;
70588;SDS011;58152;49.202;18.744;2023-07-20T02:27:25;4.85;;;3.65;;
70588;SDS011;58152;49.202;18.744;2023-07-20T02:29:50;4.45;;;3.55;;
70588;SDS011;58152;49.202;18.744;2023-07-20T02:32:16;3.78;;;3.28;;
70588;SDS011;58152;49.202;18.744;2023-07-20T02:34:41;5.05;;;3.67;;
70588;SDS011;58152;49.202;18.744;2023-07-20T02:37:07;4.03;;;3.58;;
70588;SDS011;58152;49.202;18.744;2023-07-20T02:39:32;5.22;;;3.42;;
70588;SDS011;58152;49.202;18.744;2023-07-20T02:41:58;3.70;;;3.10;;
70588;SDS011;58152;49.202;18.744;2023-07-20T02:44:23;3.40;;;3.05;;
70588;SDS011;58152;49.202;18.744;2023-07-20T02:46:49;6.93;;;3.33;;
70588;SDS011;58152;49.202;18.744;2023-07-20T02:49:17;4.05;;;3.30;;
70588;SDS011;58152;49.202;18.744;2023-07-20T02:51:42;3.35;;;3.03;;
70588;SDS011;58152;49.202;18.744;2023-07-20T02:54:08;4.03;;;3.42;;
70588;SDS011;58152;49.202;18.744;2023-07-20T02:56:33;4.43;;;3.95;;
70588;SDS011;58152;49.202;18.744;2023-07-20T02:59:00;7.97;;;4.22;;
70588;SDS011;58152;49.202;18.744;2023-07-20T03:01:26;5.95;;;4.05;;
70588;SDS011;58152;49.202;18.744;2023-07-20T03:03:54;6.72;;;4.55;;
70588;SDS011;58152;49.202;18.744;2023-07-20T03:06:19;6.72;;;3.67;;
70588;SDS011;58152;49.202;18.744;2023-07-20T03:08:45;6.35;;;3.92;;
70588;SDS011;58152;49.202;18.744;2023-07-20T03:11:12;5.03;;;4.43;;
70588;SDS011;58152;49.202;18.744;2023-07-20T03:13:39;6.65;;;3.90;;
70588;SDS011;58152;49.202;18.744;2023-07-20T03:16:05;6.25;;;4.05;;
70588;SDS011;58152;49.202;18.744;2023-07-20T03:18:36;5.60;;;4.13;;
70588;SDS011;58152;49.202;18.744;2023-07-20T03:21:04;5.10;;;3.72;;
70588;SDS011;58152;49.202;18.744;2023-07-20T03:23:31;5.00;;;3.63;;
70588;SDS011;58152;49.202;18.744;2023-07-20T03:25:57;4.93;;;3.15;;
70588;SDS011;58152;49.202;18.744;2023-07-20T03:28:23;4.53;;;3.47;;
70588;SDS011;58152;49.202;18.744;2023-07-20T03:30:58;5.28;;;3.60;;
70588;SDS011;58152;49.202;18.744;2023-07-20T03:33:27;5.28;;;3.40;;
70588;SDS011;58152;49.202;18.744;2023-07-20T03:35:54;3.97;;;3.53;;
70588;SDS011;58152;49.202;18.744;2023-07-20T03:38:21;5.50;;;3.78;;
70588;SDS011;58152;49.202;18.744;2023-07-20T03:40:50;5.75;;;3.97;;
70588;SDS011;58152;49.202;18.744;2023-07-20T03:43:20;4.95;;;3.97;;
70588;SDS011;58152;49.202;18.744;2023-07-20T03:45:47;6.38;;;4.68;;
70588;SDS011;58152;49.202;18.744;2023-07-20T03:48:13;4.75;;;4.30;;
70588;SDS011;58152;49.202;18.744;2023-07-20T03:50:40;5.32;;;4.82;;
70588;SDS011;58152;49.202;18.744;2023-07-20T03:53:06;6.68;;;4.97;;
70588;SDS011;58152;49.202;18.744;2023-07-20T03:55:31;5.13;;;3.85;;
70588;SDS011;58152;49.202;18.744;2023-07-20T03:57:57;8.45;;;4.30;;
70588;SDS011;58152;49.202;18.744;2023-07-20T04:00:22;5.78;;;4.30;;
70588;SDS011;58152;49.202;18.744;2023-07-20T04:02:48;6.45;;;4.00;;
70588;SDS011;58152;49.202;18.744;2023-07-20T04:05:14;4.45;;;3.50;;
70588;SDS011;58152;49.202;18.744;2023-07-20T04:07:39;4.40;;;3.65;;
70588;SDS011;58152;49.202;18.744;2023-07-20T04:10:05;6.32;;;4.13;;
70588;SDS011;58152;49.202;18.744;2023-07-20T04:12:33;5.30;;;4.30;;
70588;SDS011;58152;49.202;18.744;2023-07-20T04:14:59;5.38;;;3.88;;
70588;SDS011;58152;49.202;18.744;2023-07-20T04:17:30;4.75;;;3.78;;
70588;SDS011;58152;49.202;18.744;2023-07-20T04:19:56;6.45;;;3.95;;
70588;SDS011;58152;49.202;18.744;2023-07-20T04:22:22;4.93;;;4.32;;
70588;SDS011;58152;49.202;18.744;2023-07-20T04:24:47;5.10;;;4.07;;
70588;SDS011;58152;49.202;18.744;2023-07-20T04:27:12;7.63;;;4.07;;
70588;SDS011;58152;49.202;18.744;2023-07-20T04:29:38;8.85;;;4.15;;
70588;SDS011;58152;49.202;18.744;2023-07-20T04:32:06;6.57;;;3.65;;
70588;SDS011;58152;49.202;18.744;2023-07-20T04:34:32;5.47;;;4.57;;
70588;SDS011;58152;49.202;18.744;2023-07-20T04:37:02;5.65;;;4.00;;
70588;SDS011;58152;49.202;18.744;2023-07-20T04:39:28;5.03;;;3.70;;
70588;SDS011;58152;49.202;18.744;2023-07-20T04:41:53;4.90;;;4.28;;
70588;SDS011;58152;49.202;18.744;2023-07-20T04:44:19;7.65;;;5.38;;
70588;SDS011;58152;49.202;18.744;2023-07-20T04:46:44;5.65;;;4.70;;
70588;SDS011;58152;49.202;18.744;2023-07-20T04:49:11;7.03;;;5.53;;
70588;SDS011;58152;49.202;18.744;2023-07-20T04:51:37;5.35;;;4.32;;
70588;SDS011;58152;49.202;18.744;2023-07-20T04:54:03;11.13;;;5.25;;
70588;SDS011;58152;49.202;18.744;2023-07-20T04:56:29;5.55;;;4.53;;
70588;SDS011;58152;49.202;18.744;2023-07-20T04:58:54;5.18;;;3.88;;
70588;SDS011;58152;49.202;18.744;2023-07-20T05:01:22;5.00;;;4.50;;
70588;SDS011;58152;49.202;18.744;2023-07-20T05:03:48;6.82;;;4.75;;
70588;SDS011;58152;49.202;18.744;2023-07-20T05:06:14;7.40;;;3.95;;
70588;SDS011;58152;49.202;18.744;2023-07-20T05:08:40;5.40;;;3.85;;
70588;SDS011;58152;49.202;18.744;2023-07-20T05:11:07;3.97;;;3.40;;
70588;SDS011;58152;49.202;18.744;2023-07-20T05:13:32;4.32;;;3.53;;
70588;SDS011;58152;49.202;18.744;2023-07-20T05:15:58;4.35;;;2.50;;
70588;SDS011;58152;49.202;18.744;2023-07-20T05:18:24;2.72;;;2.45;;
70588;SDS011;58152;49.202;18.744;2023-07-20T05:20:52;3.67;;;2.20;;
70588;SDS011;58152;49.202;18.744;2023-07-20T05:23:33;2.22;;;1.70;;
70588;SDS011;58152;49.202;18.744;2023-07-20T05:25:59;3.80;;;2.25;;
70588;SDS011;58152;49.202;18.744;2023-07-20T05:28:25;2.63;;;1.80;;
70588;SDS011;58152;49.202;18.744;2023-07-20T05:30:51;2.58;;;1.83;;
70588;SDS011;58152;49.202;18.744;2023-07-20T05:33:20;2.00;;;1.52;;
70588;SDS011;58152;49.202;18.744;2023-07-20T05:35:49;1.80;;;1.25;;
70588;SDS011;58152;49.202;18.744;2023-07-20T05:38:17;1.98;;;1.35;;
70588;SDS011;58152;49.202;18.744;2023-07-20T05:40:44;1.70;;;1.40;;
70588;SDS011;58152;49.202;18.744;2023-07-20T05:43:10;1.98;;;1.40;;
70588;SDS011;58152;49.202;18.744;2023-07-20T05:45:36;3.47;;;1.65;;
70588;SDS011;58152;49.202;18.744;2023-07-20T05:48:01;1.90;;;1.20;;
70588;SDS011;58152;49.202;18.744;2023-07-20T05:50:30;2.63;;;1.83;;
70588;SDS011;58152;49.202;18.744;2023-07-20T05:52:59;3.05;;;1.50;;
70588;SDS011;58152;49.202;18.744;2023-07-20T05:55:25;1.70;;;1.40;;
70588;SDS011;58152;49.202;18.744;2023-07-20T05:57:50;4.25;;;2.28;;
70588;SDS011;58152;49.202;18.744;2023-07-20T06:00:48;3.13;;;1.60;;
70588;SDS011;58152;49.202;18.744;2023-07-20T06:03:15;2.45;;;1.50;;
70588;SDS011;58152;49.202;18.744;2023-07-20T06:05:46;2.22;;;1.48;;
70588;SDS011;58152;49.202;18.744;2023-07-20T06:39:45;2.92;;;1.20;;
70588;SDS011;58152;49.202;18.744;2023-07-20T07:04:44;2.30;;;1.60;;
70588;SDS011;58152;49.202;18.744;2023-07-20T07:30:33;2.17;;;0.98;;
70588;SDS011;58152;49.202;18.744;2023-07-20T07:32:59;2.28;;;1.67;;
70588;SDS011;58152;49.202;18.744;2023-07-20T07:35:24;2.72;;;1.48;;
70588;SDS011;58152;49.202;18.744;2023-07-20T07:44:52;1.55;;;1.30;;
70588;SDS011;58152;49.202;18.744;2023-07-20T08:04:36;1.35;;;1.25;;
70588;SDS011;58152;49.202;18.744;2023-07-20T08:24:39;1.30;;;1.20;;
70588;SDS011;58152;49.202;18.744;2023-07-20T08:27:09;2.95;;;1.67;;
70588;SDS011;58152;49.202;18.744;2023-07-20T08:36:30;2.40;;;1.40;;
70588;SDS011;58152;49.202;18.744;2023-07-20T08:42:55;1.92;;;1.70;;
70588;SDS011;58152;49.202;18.744;2023-07-20T09:03:00;2.13;;;1.40;;
70588;SDS011;58152;49.202;18.744;2023-07-20T09:05:28;5.55;;;2.55;;
70588;SDS011;58152;49.202;18.744;2023-07-20T09:07:54;3.80;;;1.73;;
70588;SDS011;58152;49.202;18.744;2023-07-20T09:10:27;1.50;;;1.33;;
70588;SDS011;58152;49.202;18.744;2023-07-20T09:12:57;2.00;;;1.73;;
70588;SDS011;58152;49.202;18.744;2023-07-20T09:15:23;2.63;;;2.03;;
70588;SDS011;58152;49.202;18.744;2023-07-20T09:17:54;2.78;;;1.85;;
70588;SDS011;58152;49.202;18.744;2023-07-20T09:20:38;1.75;;;1.50;;
70588;SDS011;58152;49.202;18.744;2023-07-20T09:23:04;2.45;;;1.48;;
70588;SDS011;58152;49.202;18.744;2023-07-20T09:25:34;4.72;;;1.75;;
70588;SDS011;58152;49.202;18.744;2023-07-20T09:28:26;2.25;;;1.50;;
70588;SDS011;58152;49.202;18.744;2023-07-20T09:38:00;1.85;;;1.33;;
70588;SDS011;58152;49.202;18.744;2023-07-20T09:40:29;2.65;;;1.45;;
70588;SDS011;58152;49.202;18.744;2023-07-20T09:43:11;2.58;;;1.50;;
70588;SDS011;58152;49.202;18.744;2023-07-20T09:45:42;2.20;;;1.50;;
70588;SDS011;58152;49.202;18.744;2023-07-20T09:48:19;3.05;;;1.83;;
70588;SDS011;58152;49.202;18.744;2023-07-20T09:58:00;1.92;;;1.42;;
70588;SDS011;58152;49.202;18.744;2023-07-20T10:01:00;1.83;;;1.50;;
70588;SDS011;58152;49.202;18.744;2023-07-20T10:04:23;2.65;;;1.73;;
70588;SDS011;58152;49.202;18.744;2023-07-20T10:07:05;1.73;;;1.40;;
70588;SDS011;58152;49.202;18.744;2023-07-20T10:09:43;1.60;;;1.38;;
70588;SDS011;58152;49.202;18.744;2023-07-20T10:12:40;1.40;;;1.25;;
70588;SDS011;58152;49.202;18.744;2023-07-20T10:15:37;1.85;;;1.25;;
70588;SDS011;58152;49.202;18.744;2023-07-20T10:21:33;1.48;;;0.85;;
70588;SDS011;58152;49.202;18.744;2023-07-20T10:27:26;1.15;;;1.00;;
70588;SDS011;58152;49.202;18.744;2023-07-20T10:30:11;2.22;;;1.40;;
70588;SDS011;58152;49.202;18.744;2023-07-20T10:33:12;2.05;;;1.30;;
70588;SDS011;58152;49.202;18.744;2023-07-20T10:35:58;1.83;;;0.95;;
70588;SDS011;58152;49.202;18.744;2023-07-20T10:44:09;1.67;;;1.00;;
70588;SDS011;58152;49.202;18.744;2023-07-20T10:53:46;1.65;;;1.20;;
70588;SDS011;58152;49.202;18.744;2023-07-20T10:56:19;2.20;;;1.33;;
70588;SDS011;58152;49.202;18.744;2023-07-20T10:58:48;0.85;;;0.80;;
70588;SDS011;58152;49.202;18.744;2023-07-20T11:01:14;16.73;;;15.00;;
70588;SDS011;58152;49.202;18.744;2023-07-20T11:03:41;55.35;;;49.50;;
70588;SDS011;58152;49.202;18.744;2023-07-20T11:12:34;2.00;;;1.80;;
70588;SDS011;58152;49.202;18.744;2023-07-20T11:15:03;1.55;;;0.80;;
70588;SDS011;58152;49.202;18.744;2023-07-20T11:17:35;1.13;;;1.00;;
70588;SDS011;58152;49.202;18.744;2023-07-20T11:42:34;1.38;;;0.70;;
70588;SDS011;58152;49.202;18.744;2023-07-20T11:45:01;1.17;;;0.77;;
70588;SDS011;58152;49.202;18.744;2023-07-20T11:47:30;28.08;;;24.35;;
70588;SDS011;58152;49.202;18.744;2023-07-20T11:49:55;35.78;;;30.77;;
70588;SDS011;58152;49.202;18.744;2023-07-20T11:52:28;21.23;;;18.67;;
70588;SDS011;58152;49.202;18.744;2023-07-20T12:02:06;1.95;;;1.05;;
70588;SDS011;58152;49.202;18.744;2023-07-20T12:20:45;1.40;;;0.82;;
70588;SDS011;58152;49.202;18.744;2023-07-20T12:23:13;1.23;;;0.85;;
70588;SDS011;58152;49.202;18.744;2023-07-20T12:25:43;1.17;;;1.02;;
70588;SDS011;58152;49.202;18.744;2023-07-20T12:28:12;2.40;;;0.90;;
70588;SDS011;58152;49.202;18.744;2023-07-20T12:30:39;0.90;;;0.70;;
70588;SDS011;58152;49.202;18.744;2023-07-20T13:07:55;1.67;;;0.70;;
70588;SDS011;58152;49.202;18.744;2023-07-20T13:30:35;1.15;;;0.77;;
70588;SDS011;58152;49.202;18.744;2023-07-20T13:56:48;1.30;;;0.80;;
70588;SDS011;58152;49.202;18.744;2023-07-20T13:59:13;1.48;;;1.00;;
70588;SDS011;58152;49.202;18.744;2023-07-20T14:01:39;44.80;;;39.95;;
70588;SDS011;58152;49.202;18.744;2023-07-20T14:04:04;51.63;;;46.00;;
70588;SDS011;58152;49.202;18.744;2023-07-20T14:06:30;25.08;;;21.98;;
70588;SDS011;58152;49.202;18.744;2023-07-20T14:08:57;7.30;;;6.55;;
70588;SDS011;58152;49.202;18.744;2023-07-20T14:11:23;3.85;;;2.28;;
70588;SDS011;58152;49.202;18.744;2023-07-20T14:13:52;1.73;;;1.23;;
70588;SDS011;58152;49.202;18.744;2023-07-20T14:16:30;1.05;;;0.63;;
70588;SDS011;58152;49.202;18.744;2023-07-20T16:44:09;1.63;;;0.80;;
70588;SDS011;58152;49.202;18.744;2023-07-20T16:46:35;2.20;;;0.90;;
70588;SDS011;58152;49.202;18.744;2023-07-20T16:49:00;1.23;;;0.90;;
70588;SDS011;58152;49.202;18.744;2023-07-20T16:51:34;1.55;;;0.90;;
70588;SDS011;58152;49.202;18.744;2023-07-20T16:54:00;1.40;;;0.90;;
70588;SDS011;58152;49.202;18.744;2023-07-20T16:59:06;0.85;;;0.73;;
70588;SDS011;58152;49.202;18.744;2023-07-20T17:01:50;0.80;;;0.73;;
70588;SDS011;58152;49.202;18.744;2023-07-20T17:04:18;1.20;;;0.82;;
70588;SDS011;58152;49.202;18.744;2023-07-20T17:06:52;2.47;;;0.82;;
70588;SDS011;58152;49.202;18.744;2023-07-20T17:09:20;0.90;;;0.60;;
70588;SDS011;58152;49.202;18.744;2023-07-20T17:11:53;0.80;;;0.60;;
70588;SDS011;58152;49.202;18.744;2023-07-20T17:14:22;3.20;;;2.90;;
70588;SDS011;58152;49.202;18.744;2023-07-20T17:17:10;2.22;;;2.03;;
70588;SDS011;58152;49.202;18.744;2023-07-20T17:26:24;1.45;;;0.90;;
70588;SDS011;58152;49.202;18.744;2023-07-20T17:28:53;1.27;;;1.08;;
70588;SDS011;58152;49.202;18.744;2023-07-20T17:31:28;1.10;;;1.00;;
70588;SDS011;58152;49.202;18.744;2023-07-20T17:48:02;1.70;;;1.40;;
70588;SDS011;58152;49.202;18.744;2023-07-20T17:54:27;1.67;;;1.00;;
70588;SDS011;58152;49.202;18.744;2023-07-20T17:56:56;1.10;;;0.90;;
70588;SDS011;58152;49.202;18.744;2023-07-20T18:16:43;1.70;;;1.02;;
70588;SDS011;58152;49.202;18.744;2023-07-20T18:19:09;1.27;;;0.90;;
70588;SDS011;58152;49.202;18.744;2023-07-20T18:22:17;1.40;;;1.02;;
70588;SDS011;58152;49.202;18.744;2023-07-20T18:24:45;1.90;;;0.90;;
70588;SDS011;58152;49.202;18.744;2023-07-20T18:27:35;2.25;;;1.17;;
70588;SDS011;58152;49.202;18.744;2023-07-20T18:30:08;2.40;;;0.75;;
70588;SDS011;58152;49.202;18.744;2023-07-20T18:32:46;1.80;;;1.25;;
70588;SDS011;58152;49.202;18.744;2023-07-20T18:41:58;2.00;;;1.10;;
70588;SDS011;58152;49.202;18.744;2023-07-20T18:44:26;2.17;;;1.38;;
70588;SDS011;58152;49.202;18.744;2023-07-20T18:47:04;2.50;;;1.92;;
70588;SDS011;58152;49.202;18.744;2023-07-20T18:49:34;1.95;;;1.30;;
70588;SDS011;58152;49.202;18.744;2023-07-20T18:52:07;1.90;;;1.30;;
70588;SDS011;58152;49.202;18.744;2023-07-20T18:55:05;2.97;;;1.63;;
70588;SDS011;58152;49.202;18.744;2023-07-20T19:01:06;1.42;;;0.88;;
70588;SDS011;58152;49.202;18.744;2023-07-20T19:03:37;1.67;;;1.13;;
70588;SDS011;58152;49.202;18.744;2023-07-20T19:06:07;1.65;;;1.05;;
70588;SDS011;58152;49.202;18.744;2023-07-20T19:09:00;1.48;;;1.30;;
70588;SDS011;58152;49.202;18.744;2023-07-20T19:11:31;1.25;;;0.88;;
70588;SDS011;58152;49.202;18.744;2023-07-20T19:14:02;1.17;;;0.80;;
70588;SDS011;58152;49.202;18.744;2023-07-20T19:16:39;1.63;;;1.17;;
70588;SDS011;58152;49.202;18.744;2023-07-20T19:19:12;1.47;;;1.13;;
70588;SDS011;58152;49.202;18.744;2023-07-20T19:21:40;3.40;;;1.30;;
70588;SDS011;58152;49.202;18.744;2023-07-20T19:24:49;1.80;;;1.38;;
70588;SDS011;58152;49.202;18.744;2023-07-20T19:27:02;1.40;;;1.20;;
70588;SDS011;58152;49.202;18.744;2023-07-20T19:29:30;3.38;;;1.10;;
70588;SDS011;58152;49.202;18.744;2023-07-20T19:32:00;1.50;;;1.40;;
70588;SDS011;58152;49.202;18.744;2023-07-20T19:34:36;2.42;;;1.25;;
70588;SDS011;58152;49.202;18.744;2023-07-20T19:37:11;1.60;;;1.38;;
70588;SDS011;58152;49.202;18.744;2023-07-20T19:39:36;1.83;;;1.20;;
70588;SDS011;58152;49.202;18.744;2023-07-20T19:42:08;3.33;;;1.35;;
70588;SDS011;58152;49.202;18.744;2023-07-20T19:47:46;2.05;;;1.52;;
70588;SDS011;58152;49.202;18.744;2023-07-20T19:50:37;1.48;;;1.25;;
70588;SDS011;58152;49.202;18.744;2023-07-20T19:53:31;1.63;;;1.02;;
70588;SDS011;58152;49.202;18.744;2023-07-20T19:56:04;1.75;;;1.33;;
70588;SDS011;58152;49.202;18.744;2023-07-20T19:58:32;2.45;;;1.20;;
70588;SDS011;58152;49.202;18.744;2023-07-20T20:01:01;1.20;;;1.10;;
70588;SDS011;58152;49.202;18.744;2023-07-20T20:04:14;1.85;;;1.45;;
70588;SDS011;58152;49.202;18.744;2023-07-20T20:06:50;1.58;;;1.25;;
70588;SDS011;58152;49.202;18.744;2023-07-20T20:09:16;3.25;;;1.33;;
70588;SDS011;58152;49.202;18.744;2023-07-20T20:11:48;1.92;;;1.50;;
70588;SDS011;58152;49.202;18.744;2023-07-20T20:14:28;1.42;;;1.33;;
70588;SDS011;58152;49.202;18.744;2023-07-20T20:17:11;2.95;;;1.63;;
70588;SDS011;58152;49.202;18.744;2023-07-20T20:19:40;4.10;;;2.15;;
70588;SDS011;58152;49.202;18.744;2023-07-20T20:22:07;2.00;;;1.67;;
70588;SDS011;58152;49.202;18.744;2023-07-20T20:24:34;2.20;;;1.85;;
70588;SDS011;58152;49.202;18.744;2023-07-20T20:27:01;3.03;;;2.15;;
70588;SDS011;58152;49.202;18.744;2023-07-20T20:29:31;2.55;;;1.73;;
70588;SDS011;58152;49.202;18.744;2023-07-20T20:31:58;3.15;;;2.08;;
70588;SDS011;58152;49.202;18.744;2023-07-20T20:34:28;2.28;;;1.60;;
70588;SDS011;58152;49.202;18.744;2023-07-20T20:36:53;2.80;;;2.00;;
70588;SDS011;58152;49.202;18.744;2023-07-20T20:39:22;3.53;;;2.40;;
70588;SDS011;58152;49.202;18.744;2023-07-20T20:41:48;127.13;;;114.97;;
70588;SDS011;58152;49.202;18.744;2023-07-20T20:44:13;115.53;;;103.50;;
70588;SDS011;58152;49.202;18.744;2023-07-20T20:46:56;38.55;;;34.20;;
70588;SDS011;58152;49.202;18.744;2023-07-20T20:49:31;14.52;;;12.98;;
70588;SDS011;58152;49.202;18.744;2023-07-20T20:51:56;15.55;;;13.35;;
70588;SDS011;58152;49.202;18.744;2023-07-20T20:54:22;7.22;;;5.88;;
70588;SDS011;58152;49.202;18.744;2023-07-20T20:57:07;3.47;;;2.60;;
70588;SDS011;58152;49.202;18.744;2023-07-20T20:59:33;3.17;;;2.13;;
70588;SDS011;58152;49.202;18.744;2023-07-20T21:02:03;1.98;;;1.67;;
70588;SDS011;58152;49.202;18.744;2023-07-20T21:04:29;2.90;;;1.50;;
70588;SDS011;58152;49.202;18.744;2023-07-20T21:06:55;3.67;;;2.03;;
70588;SDS011;58152;49.202;18.744;2023-07-20T21:09:21;1.95;;;1.77;;
70588;SDS011;58152;49.202;18.744;2023-07-20T21:11:46;2.83;;;2.20;;
70588;SDS011;58152;49.202;18.744;2023-07-20T21:14:12;2.42;;;1.73;;
70588;SDS011;58152;49.202;18.744;2023-07-20T21:16:38;3.40;;;2.00;;
70588;SDS011;58152;49.202;18.744;2023-07-20T21:19:04;1.88;;;1.50;;
70588;SDS011;58152;49.202;18.744;2023-07-20T21:21:29;9.05;;;8.15;;
70588;SDS011;58152;49.202;18.744;2023-07-20T21:23:55;15.52;;;13.10;;
70588;SDS011;58152;49.202;18.744;2023-07-20T21:26:20;14.30;;;12.82;;
70588;SDS011;58152;49.202;18.744;2023-07-20T21:28:46;29.02;;;25.92;;
70588;SDS011;58152;49.202;18.744;2023-07-20T21:31:11;18.35;;;14.85;;
70588;SDS011;58152;49.202;18.744;2023-07-20T21:33:37;5.68;;;5.07;;
70588;SDS011;58152;49.202;18.744;2023-07-20T21:36:04;5.20;;;3.58;;
70588;SDS011;58152;49.202;18.744;2023-07-20T21:38:30;4.15;;;2.92;;
70588;SDS011;58152;49.202;18.744;2023-07-20T21:40:58;2.47;;;2.28;;
70588;SDS011;58152;49.202;18.744;2023-07-20T21:43:24;2.15;;;1.95;;
70588;SDS011;58152;49.202;18.744;2023-07-20T21:45:49;3.08;;;1.90;;
70588;SDS011;58152;49.202;18.744;2023-07-20T21:48:15;23.08;;;21.33;;
70588;SDS011;58152;49.202;18.744;2023-07-20T21:50:49;16.63;;;14.95;;
70588;SDS011;58152;49.202;18.744;2023-07-20T21:53:16;18.70;;;16.83;;
70588;SDS011;58152;49.202;18.744;2023-07-20T21:55:45;41.15;;;35.60;;
70588;SDS011;58152;49.202;18.744;2023-07-20T21:58:17;17.45;;;15.60;;
70588;SDS011;58152;49.202;18.744;2023-07-20T22:01:08;8.70;;;5.82;;
70588;SDS011;58152;49.202;18.744;2023-07-20T22:03:36;5.75;;;4.10;;
70588;SDS011;58152;49.202;18.744;2023-07-20T22:06:02;3.60;;;2.92;;
70588;SDS011;58152;49.202;18.744;2023-07-20T22:08:30;4.60;;;3.15;;
70588;SDS011;58152;49.202;18.744;2023-07-20T22:11:06;5.35;;;2.97;;
70588;SDS011;58152;49.202;18.744;2023-07-20T22:15:57;3.23;;;2.53;;
70588;SDS011;58152;49.202;18.744;2023-07-20T22:18:23;5.50;;;3.35;;
70588;SDS011;58152;49.202;18.744;2023-07-20T22:20:51;4.90;;;3.28;;
70588;SDS011;58152;49.202;18.744;2023-07-20T22:23:17;3.47;;;2.65;;
70588;SDS011;58152;49.202;18.744;2023-07-20T22:25:42;4.72;;;2.95;;
70588;SDS011;58152;49.202;18.744;2023-07-20T22:28:07;3.15;;;2.80;;
70588;SDS011;58152;49.202;18.744;2023-07-20T22:30:33;3.03;;;2.58;;
70588;SDS011;58152;49.202;18.744;2023-07-20T22:32:58;4.22;;;3.33;;
70588;SDS011;58152;49.202;18.744;2023-07-20T22:35:24;6.15;;;3.58;;
70588;SDS011;58152;49.202;18.744;2023-07-20T22:37:49;6.03;;;4.05;;
70588;SDS011;58152;49.202;18.744;2023-07-20T22:40:15;5.43;;;3.67;;
70588;SDS011;58152;49.202;18.744;2023-07-20T22:42:41;4.18;;;3.60;;
70588;SDS011;58152;49.202;18.744;2023-07-20T22:45:08;5.32;;;3.75;;
70588;SDS011;58152;49.202;18.744;2023-07-20T22:47:34;4.75;;;3.28;;
70588;SDS011;58152;49.202;18.744;2023-07-20T22:50:00;4.85;;;3.40;;
70588;SDS011;58152;49.202;18.744;2023-07-20T22:52:27;5.43;;;3.95;;
70588;SDS011;58152;49.202;18.744;2023-07-20T22:54:52;4.18;;;3.38;;
70588;SDS011;58152;49.202;18.744;2023-07-20T22:57:18;4.28;;;3.10;;
70588;SDS011;58152;49.202;18.744;2023-07-20T22:59:43;3.47;;;3.00;;
70588;SDS011;58152;49.202;18.744;2023-07-20T23:02:09;5.13;;;3.83;;
70588;SDS011;58152;49.202;18.744;2023-07-20T23:04:35;4.80;;;3.03;;
70588;SDS011;58152;49.202;18.744;2023-07-20T23:07:00;5.93;;;3.28;;
70588;SDS011;58152;49.202;18.744;2023-07-20T23:09:26;68.03;;;56.63;;
70588;SDS011;58152;49.202;18.744;2023-07-20T23:11:51;55.00;;;44.58;;
70588;SDS011;58152;49.202;18.744;2023-07-20T23:14:17;59.65;;;46.70;;
70588;SDS011;58152;49.202;18.744;2023-07-20T23:16:43;44.03;;;36.00;;
70588;SDS011;58152;49.202;18.744;2023-07-20T23:19:08;16.45;;;14.55;;
70588;SDS011;58152;49.202;18.744;2023-07-20T23:21:34;8.82;;;6.93;;
70588;SDS011;58152;49.202;18.744;2023-07-20T23:23:59;4.57;;;3.90;;
70588;SDS011;58152;49.202;18.744;2023-07-20T23:26:28;3.58;;;2.80;;
70588;SDS011;58152;49.202;18.744;2023-07-20T23:28:53;4.47;;;3.30;;
70588;SDS011;58152;49.202;18.744;2023-07-20T23:31:19;3.47;;;2.83;;
70588;SDS011;58152;49.202;18.744;2023-07-20T23:33:47;3.42;;;2.72;;
70588;SDS011;58152;49.202;18.744;2023-07-20T23:36:13;3.30;;;2.95;;